Time;durP1;ratioP1;P1;durP2;ratioP2;P2;SDS_P1;SDS_P2;PMS_P1;PMS_P2;Temp;Humidity;BMP_temperature;BMP_pressure;BME280_temperature;BME280_humidity;BME280_pressure;Samples;Min_cycle;Max_cycle;Signal;HPM_P1;HPM_P2
2021/12/23 00:00:02;;;;;;;42.60;21.40;;;;;;;-2.54;68.20;101296.20;102603;1327;22606;-80
2021/12/23 00:02:35;;;;;;;43.20;23.70;;;;;;;-2.62;67.87;101292.65;102907;1322;22567;-78
2021/12/23 00:05:02;;;;;;;43.80;23.40;;;;;;;-2.65;67.93;101281.63;103331;1322;25219;-78
2021/12/23 00:07:29;;;;;;;50.40;27.00;;;;;;;-2.69;68.06;101281.54;103011;1322;25156;-79
2021/12/23 00:10:06;;;;;;;39.40;21.90;;;;;;;-2.66;68.15;101276.67;103258;1322;23989;-78
2021/12/23 00:12:45;;;;;;;43.20;23.10;;;;;;;-2.66;68.08;101273.61;103167;1319;22717;-77
2021/12/23 00:23:41;;;;;;;36.60;21.00;;;;;;;-2.44;67.88;101259.33;103059;1322;22553;-81
2021/12/23 00:26:08;;;;;;;40.80;21.80;;;;;;;-2.46;67.79;101255.55;103242;1322;22647;-78
2021/12/23 00:28:34;;;;;;;38.90;22.00;;;;;;;-2.44;68.01;101252.44;103303;1322;25454;-78
2021/12/23 00:31:05;;;;;;;39.70;21.00;;;;;;;-2.39;67.91;101242.19;102639;1328;25423;-79
2021/12/23 00:33:35;;;;;;;44.80;22.40;;;;;;;-2.40;67.87;101244.21;102420;1330;24136;-79
2021/12/23 00:36:04;;;;;;;43.70;25.00;;;;;;;-2.35;68.01;101245.52;102200;1333;22938;-80
2021/12/23 00:38:36;;;;;;;40.40;23.60;;;;;;;-2.27;67.93;101243.04;102245;1333;22776;-79
2021/12/23 00:41:08;;;;;;;35.20;19.70;;;;;;;-2.20;67.65;101241.73;102395;1333;24145;-83
2021/12/23 00:43:36;;;;;;;39.20;21.20;;;;;;;-2.29;67.24;101240.66;102265;1333;22580;-80
2021/12/23 00:46:06;;;;;;;35.00;19.60;;;;;;;-2.35;67.42;101240.71;102339;1334;25235;-79
2021/12/23 00:48:35;;;;;;;43.00;22.80;;;;;;;-2.41;67.63;101237.05;102192;1331;25339;-80
2021/12/23 00:51:03;;;;;;;38.60;22.80;;;;;;;-2.32;67.88;101235.70;102834;1330;22762;-82
2021/12/23 00:53:36;;;;;;;44.20;24.30;;;;;;;-2.37;67.29;101235.27;102942;1323;25425;-81
2021/12/23 00:56:16;;;;;;;41.70;24.40;;;;;;;-2.38;67.67;101232.75;103281;1322;24311;-81
2021/12/23 00:58:43;;;;;;;44.20;23.20;;;;;;;-2.31;67.75;101226.25;103254;1322;25368;-81
2021/12/23 01:01:10;;;;;;;36.50;20.30;;;;;;;-2.31;67.63;101226.78;103112;1325;22660;-80
2021/12/23 01:03:38;;;;;;;35.50;20.20;;;;;;;-2.33;67.50;101224.77;103304;1322;22810;-80
2021/12/23 01:06:05;;;;;;;36.00;22.20;;;;;;;-2.32;67.49;101222.92;103263;1322;24727;-80
2021/12/23 01:08:31;;;;;;;32.60;18.00;;;;;;;-2.31;67.57;101216.96;103465;1321;22626;-83
2021/12/23 01:11:00;;;;;;;38.50;20.80;;;;;;;-2.30;67.49;101214.75;103394;1322;23979;-81
2021/12/23 01:13:29;;;;;;;36.40;20.10;;;;;;;-2.29;67.43;101215.88;103311;1321;23049;-79
2021/12/23 01:18:32;;;;;;;39.90;22.00;;;;;;;-2.29;67.44;101203.09;102554;1327;23771;-80
2021/12/23 01:21:16;;;;;;;37.50;21.50;;;;;;;-2.26;67.44;101203.23;102975;1326;23921;-82
2021/12/23 01:23:53;;;;;;;33.50;19.80;;;;;;;-2.24;67.24;101202.33;102301;1327;22609;-80
2021/12/23 01:26:23;;;;;;;32.90;18.90;;;;;;;-2.34;66.86;101202.61;102145;1334;22594;-79
2021/12/23 01:28:54;;;;;;;40.60;23.80;;;;;;;-2.40;67.08;101200.20;102104;1333;24225;-78
2021/12/23 01:31:24;;;;;;;38.90;22.30;;;;;;;-2.37;67.29;101194.69;102162;1333;22686;-81
2021/12/23 01:33:53;;;;;;;41.30;22.00;;;;;;;-2.30;67.18;101196.79;102161;1329;22593;-81
2021/12/23 01:36:20;;;;;;;37.90;21.10;;;;;;;-2.35;67.10;101195.70;101996;1333;22593;-80
2021/12/23 01:38:47;;;;;;;38.30;21.20;;;;;;;-2.34;67.20;101193.84;101981;1334;22573;-81
2021/12/23 01:41:15;;;;;;;40.90;22.30;;;;;;;-2.31;67.03;101190.21;102345;1328;24215;-89
2021/12/23 01:43:42;;;;;;;36.00;18.40;;;;;;;-2.32;66.89;101189.95;103069;1328;22756;-84
2021/12/23 01:46:14;;;;;;;31.70;17.50;;;;;;;-2.35;67.13;101192.90;102814;1328;22782;-83
2021/12/23 01:48:41;;;;;;;33.00;17.20;;;;;;;-2.46;66.79;101188.48;102987;1328;23170;-83
2021/12/23 01:51:08;;;;;;;31.20;18.80;;;;;;;-2.62;66.82;101184.81;103015;1328;22797;-82
2021/12/23 01:53:35;;;;;;;33.10;19.10;;;;;;;-2.73;66.91;101180.09;103035;1326;22828;-81
2021/12/23 01:56:03;;;;;;;39.10;20.60;;;;;;;-2.78;67.30;101173.45;102828;1327;22817;-81
2021/12/23 01:58:31;;;;;;;32.30;19.70;;;;;;;-2.77;67.30;101170.73;102843;1327;26614;-80
2021/12/23 02:00:57;;;;;;;34.50;18.70;;;;;;;-2.86;67.34;101165.71;102795;1326;25236;-81
2021/12/23 02:03:25;;;;;;;36.40;21.50;;;;;;;-2.84;67.61;101156.49;102877;1325;24248;-81
2021/12/23 02:05:52;;;;;;;40.00;23.30;;;;;;;-2.78;67.68;101154.43;102928;1322;22788;-81
2021/12/23 02:08:32;;;;;;;36.60;18.40;;;;;;;-2.72;67.74;101150.84;102779;1326;22663;-82
2021/12/23 02:11:00;;;;;;;34.10;17.60;;;;;;;-2.67;67.61;101147.11;102986;1326;22850;-82
2021/12/23 02:13:28;;;;;;;41.10;21.50;;;;;;;-2.69;67.44;101144.27;103121;1322;22638;-81
2021/12/23 02:15:56;;;;;;;34.30;19.20;;;;;;;-2.70;67.26;101138.14;103211;1320;25349;-81
2021/12/23 02:18:24;;;;;;;37.50;20.20;;;;;;;-2.70;67.40;101133.52;103255;1322;25371;-80
2021/12/23 02:20:53;;;;;;;34.00;18.80;;;;;;;-2.61;67.49;101131.77;103135;1322;22580;-81
2021/12/23 02:23:21;;;;;;;35.20;18.60;;;;;;;-2.60;67.08;101131.14;102852;1323;22816;-79
2021/12/23 02:25:48;;;;;;;38.20;20.40;;;;;;;-2.67;67.25;101124.21;102769;1325;22699;-80
2021/12/23 02:28:20;;;;;;;42.20;21.80;;;;;;;-2.66;67.14;101120.77;103196;1323;24299;-79
2021/12/23 02:30:51;;;;;;;33.50;19.10;;;;;;;-2.67;67.23;101115.40;103313;1319;23902;-79
2021/12/23 02:33:22;;;;;;;37.30;18.10;;;;;;;-2.77;67.02;101107.45;103327;1322;22664;-77
2021/12/23 02:35:50;;;;;;;39.40;21.10;;;;;;;-2.82;67.01;101104.76;103256;1320;23593;-78
2021/12/23 02:38:17;;;;;;;30.10;16.70;;;;;;;-2.86;67.10;101103.13;102951;1323;25237;-77
2021/12/23 02:40:45;;;;;;;34.40;18.90;;;;;;;-2.94;67.28;101096.98;103314;1323;22751;-77
2021/12/23 02:43:15;;;;;;;27.30;15.70;;;;;;;-2.93;67.49;101093.41;102895;1322;374013;-76
2021/12/23 02:45:44;;;;;;;24.50;12.90;;;;;;;-2.95;67.36;101092.98;102637;1327;22586;-79
2021/12/23 02:48:14;;;;;;;39.30;20.90;;;;;;;-2.97;67.37;101091.80;102757;1328;22693;-80
2021/12/23 02:50:43;;;;;;;34.10;19.90;;;;;;;-2.95;67.50;101086.09;102844;1326;23397;-80
2021/12/23 02:53:11;;;;;;;35.80;20.30;;;;;;;-2.89;67.62;101088.47;102792;1322;22713;-79
2021/12/23 02:55:38;;;;;;;35.00;21.00;;;;;;;-2.85;67.37;101078.90;102802;1328;22613;-78
2021/12/23 02:58:06;;;;;;;29.70;16.20;;;;;;;-2.80;67.16;101078.63;102044;1334;22589;-78
2021/12/23 03:00:34;;;;;;;35.20;20.50;;;;;;;-2.83;67.19;101076.88;102327;1333;24018;-79
2021/12/23 03:03:02;;;;;;;35.50;20.10;;;;;;;-2.84;67.26;101076.02;102089;1328;22808;-78
2021/12/23 03:05:29;;;;;;;35.50;20.50;;;;;;;-2.85;67.10;101077.68;102780;1325;26630;-80
2021/12/23 03:07:59;;;;;;;35.00;18.10;;;;;;;-2.85;67.04;101076.98;102902;1328;22983;-77
2021/12/23 03:10:26;;;;;;;34.30;17.60;;;;;;;-2.98;66.60;101071.09;102864;1325;22602;-77
2021/12/23 03:12:53;;;;;;;36.90;20.20;;;;;;;-3.06;66.97;101074.42;102734;1328;22817;-85
2021/12/23 03:15:20;;;;;;;33.60;19.00;;;;;;;-3.15;66.97;101068.77;102771;1328;22883;-80
2021/12/23 03:17:48;;;;;;;33.40;18.00;;;;;;;-3.22;67.18;101066.27;103176;1322;25396;-79
2021/12/23 03:20:14;;;;;;;32.90;18.70;;;;;;;-3.26;67.16;101063.50;102782;1322;25211;-78
2021/12/23 03:22:41;;;;;;;41.20;21.60;;;;;;;-3.29;67.37;101057.11;103002;1321;22573;-78
2021/12/23 03:25:09;;;;;;;43.20;23.90;;;;;;;-3.29;67.27;101056.23;103216;1323;22569;-80
2021/12/23 03:27:36;;;;;;;35.20;18.80;;;;;;;-3.24;67.45;101051.34;103190;1321;22802;-81
2021/12/23 03:30:05;;;;;;;33.20;19.30;;;;;;;-3.22;67.21;101052.16;103027;1323;22619;-80
2021/12/23 03:32:32;;;;;;;31.00;16.80;;;;;;;-3.25;67.21;101050.11;103167;1322;24229;-80
2021/12/23 03:34:59;;;;;;;32.60;19.30;;;;;;;-3.26;67.19;101044.88;103313;1323;24425;-79
2021/12/23 03:37:26;;;;;;;42.90;22.90;;;;;;;-3.26;67.28;101045.08;103043;1321;24320;-77
2021/12/23 03:39:53;;;;;;;38.00;21.40;;;;;;;-3.32;67.19;101041.40;103081;1322;23032;-79
2021/12/23 03:42:21;;;;;;;34.70;18.30;;;;;;;-3.27;67.38;101038.61;102939;1322;25626;-77
2021/12/23 03:44:48;;;;;;;39.00;22.80;;;;;;;-3.32;67.00;101034.36;103014;1321;25492;-78
2021/12/23 03:47:15;;;;;;;38.40;19.40;;;;;;;-3.41;67.07;101032.45;103027;1323;24282;-77
2021/12/23 03:49:42;;;;;;;31.30;17.20;;;;;;;-3.48;67.15;101025.17;102859;1323;23219;-82
2021/12/23 03:52:09;;;;;;;38.80;20.50;;;;;;;-3.55;67.51;101025.68;103111;1320;22726;-81
2021/12/23 03:54:36;;;;;;;38.00;21.20;;;;;;;-3.54;67.39;101021.06;103072;1319;24429;-82
2021/12/23 03:57:03;;;;;;;41.90;25.00;;;;;;;-3.55;67.64;101021.35;103403;1320;22567;-82
2021/12/23 03:59:30;;;;;;;48.00;25.20;;;;;;;-3.45;67.82;101016.58;103194;1320;22696;-85
2021/12/23 04:01:57;;;;;;;40.70;20.00;;;;;;;-3.33;67.76;101007.79;103320;1322;22788;-82
2021/12/23 04:04:24;;;;;;;32.90;18.70;;;;;;;-3.25;67.67;101005.83;103362;1323;24794;-83
2021/12/23 04:06:54;;;;;;;39.10;22.40;;;;;;;-3.23;67.34;101000.92;103335;1322;22586;-84
2021/12/23 04:09:21;;;;;;;39.90;21.60;;;;;;;-3.18;67.48;100997.91;103477;1321;24456;-83
2021/12/23 04:11:48;;;;;;;38.60;22.20;;;;;;;-3.10;67.44;100992.90;103201;1323;24390;-81
2021/12/23 04:14:15;;;;;;;38.30;21.70;;;;;;;-3.08;66.82;100986.22;103411;1323;25853;-83
2021/12/23 04:16:42;;;;;;;35.90;21.80;;;;;;;-3.15;67.11;100986.20;103468;1320;22678;-84
2021/12/23 04:19:11;;;;;;;37.80;20.20;;;;;;;-3.10;67.14;100982.70;103393;1322;22694;-83
2021/12/23 04:21:40;;;;;;;34.10;18.90;;;;;;;-3.09;67.04;100980.02;103193;1320;24261;-82
2021/12/23 04:24:08;;;;;;;32.50;17.90;;;;;;;-3.06;66.87;100972.60;103325;1321;25422;-84
2021/12/23 04:26:37;;;;;;;29.10;15.70;;;;;;;-3.08;66.87;100973.32;103029;1323;24758;-83
2021/12/23 04:29:05;;;;;;;34.40;20.80;;;;;;;-3.14;66.50;100968.70;103517;1322;25463;-82
2021/12/23 04:31:33;;;;;;;39.30;24.00;;;;;;;-3.23;66.43;100963.18;103219;1321;22649;-82
2021/12/23 04:34:00;;;;;;;37.50;19.90;;;;;;;-3.40;66.44;100955.70;103652;1320;24746;-83
2021/12/23 04:36:29;;;;;;;42.80;21.20;;;;;;;-3.45;66.83;100949.27;103942;1323;22577;-84
2021/12/23 04:38:58;;;;;;;44.20;24.10;;;;;;;-3.50;66.90;100943.98;103663;1322;23952;-81
2021/12/23 04:41:27;;;;;;;33.70;17.80;;;;;;;-3.50;66.93;100942.08;103837;1316;24208;-80
2021/12/23 04:43:55;;;;;;;39.40;22.00;;;;;;;-3.51;67.11;100938.76;103328;1322;23984;-81
2021/12/23 04:46:22;;;;;;;32.90;20.40;;;;;;;-3.42;67.23;100933.92;103407;1320;22606;-82
2021/12/23 04:48:50;;;;;;;36.70;20.80;;;;;;;-3.36;66.94;100932.85;103489;1323;25226;-81
2021/12/23 04:51:18;;;;;;;35.50;19.20;;;;;;;-3.35;67.17;100928.44;103430;1317;25278;-81
2021/12/23 04:53:45;;;;;;;35.70;20.60;;;;;;;-3.28;66.90;100919.84;103307;1320;25377;-85
2021/12/23 04:56:14;;;;;;;37.30;21.20;;;;;;;-3.23;66.96;100912.91;103402;1321;26741;-81
2021/12/23 04:58:42;;;;;;;37.60;22.90;;;;;;;-3.15;66.83;100906.11;103375;1322;25484;-82
2021/12/23 05:01:19;;;;;;;31.30;17.00;;;;;;;-3.11;66.52;100904.09;103387;1318;22577;-79
2021/12/23 05:03:48;;;;;;;34.30;20.10;;;;;;;-3.19;66.32;100898.65;102985;1323;26498;-80
2021/12/23 05:06:16;;;;;;;36.10;21.50;;;;;;;-3.19;66.38;100897.43;103037;1323;24890;-82
2021/12/23 05:08:43;;;;;;;40.20;21.90;;;;;;;-3.14;66.63;100892.91;103343;1316;22770;-80
2021/12/23 05:11:10;;;;;;;39.20;20.50;;;;;;;-3.12;66.30;100890.23;103477;1322;22577;-81
2021/12/23 05:13:37;;;;;;;43.70;23.20;;;;;;;-3.21;65.99;100889.55;103147;1323;22594;-78
2021/12/23 05:16:05;;;;;;;38.10;21.80;;;;;;;-3.24;66.12;100886.84;103415;1323;22611;-82
2021/12/23 05:18:32;;;;;;;39.10;22.20;;;;;;;-3.29;66.09;100884.86;103217;1322;24269;-81
2021/12/23 05:21:02;;;;;;;42.40;23.90;;;;;;;-3.34;66.15;100877.89;103200;1322;22596;-81
2021/12/23 05:23:29;;;;;;;38.10;20.00;;;;;;;-3.34;66.28;100881.28;103134;1323;26008;-81
2021/12/23 05:25:57;;;;;;;37.80;22.10;;;;;;;-3.35;66.32;100878.84;103129;1322;22573;-80
2021/12/23 05:28:23;;;;;;;38.10;21.20;;;;;;;-3.33;66.32;100878.05;103045;1322;22674;-80
2021/12/23 05:30:50;;;;;;;37.70;21.00;;;;;;;-3.26;66.38;100874.85;103205;1321;27136;-81
2021/12/23 05:33:18;;;;;;;26.10;15.40;;;;;;;-3.25;66.12;100865.77;103064;1320;24324;-83
2021/12/23 05:35:47;;;;;;;38.60;21.70;;;;;;;-3.31;65.87;100867.83;103055;1322;24931;-80
2021/12/23 05:38:14;;;;;;;44.60;23.80;;;;;;;-3.42;65.82;100863.84;103179;1322;24037;-80
2021/12/23 05:40:41;;;;;;;41.20;22.40;;;;;;;-3.41;66.07;100855.43;103197;1316;22600;-80
2021/12/23 05:43:08;;;;;;;44.80;22.80;;;;;;;-3.45;66.01;100849.88;102715;1326;24933;-79
2021/12/23 05:45:35;;;;;;;35.40;20.30;;;;;;;-3.43;66.30;100852.91;102738;1325;25214;-80
2021/12/23 05:48:02;;;;;;;38.20;21.60;;;;;;;-3.43;65.96;100850.31;102776;1322;22593;-80
2021/12/23 05:50:29;;;;;;;50.20;26.10;;;;;;;-3.44;66.29;100854.23;102582;1327;22602;-81
2021/12/23 05:52:56;;;;;;;38.60;21.00;;;;;;;-3.39;66.28;100851.77;102690;1328;23489;-81
2021/12/23 05:55:24;;;;;;;39.70;20.30;;;;;;;-3.34;66.10;100847.52;102177;1328;22766;-82
2021/12/23 05:57:52;;;;;;;41.40;24.00;;;;;;;-3.38;66.00;100845.77;102153;1333;22971;-82
2021/12/23 06:00:29;;;;;;;36.60;21.50;;;;;;;-3.44;65.83;100840.79;102199;1333;22763;-82
2021/12/23 06:02:59;;;;;;;37.70;20.80;;;;;;;-3.49;65.90;100841.06;102795;1328;23254;-79
2021/12/23 06:05:27;;;;;;;38.60;19.20;;;;;;;-3.58;65.84;100842.80;102637;1328;24374;-82
2021/12/23 06:07:53;;;;;;;35.10;20.20;;;;;;;-3.68;66.01;100842.23;102780;1328;22676;-78
2021/12/23 06:10:21;;;;;;;36.50;21.60;;;;;;;-3.68;66.34;100838.44;102732;1328;22811;-79
2021/12/23 06:12:48;;;;;;;31.10;17.70;;;;;;;-3.65;66.53;100839.11;102832;1322;22648;-81
2021/12/23 06:15:15;;;;;;;41.80;23.90;;;;;;;-3.61;66.50;100834.88;103279;1322;25300;-79
2021/12/23 06:17:43;;;;;;;41.70;25.50;;;;;;;-3.56;66.49;100831.86;103080;1321;25560;-79
2021/12/23 06:20:10;;;;;;;43.60;24.10;;;;;;;-3.53;66.42;100824.15;103148;1322;22594;-82
2021/12/23 06:22:38;;;;;;;29.00;16.10;;;;;;;-3.42;66.51;100826.45;103165;1323;25984;-80
2021/12/23 06:25:08;;;;;;;36.50;21.10;;;;;;;-3.42;66.04;100823.50;103443;1316;22630;-79
2021/12/23 06:27:36;;;;;;;37.70;20.20;;;;;;;-3.44;66.16;100824.95;103128;1322;24217;-83
2021/12/23 06:30:19;;;;;;;36.70;20.80;;;;;;;-3.39;66.29;100820.42;103275;1323;22640;-83
2021/12/23 06:32:50;;;;;;;29.60;15.60;;;;;;;-3.32;66.25;100816.84;103226;1320;25559;-85
2021/12/23 06:35:22;;;;;;;35.90;19.20;;;;;;;-3.37;65.79;100815.70;103371;1322;22601;-88
2021/12/23 06:37:51;;;;;;;36.20;21.70;;;;;;;-3.47;65.85;100812.23;103305;1323;25223;-86
2021/12/23 06:40:22;;;;;;;36.00;21.40;;;;;;;-3.50;65.96;100811.89;102972;1321;22667;-89
2021/12/23 06:42:50;;;;;;;39.50;21.80;;;;;;;-3.44;66.23;100816.35;103350;1322;25384;-87
2021/12/23 06:45:18;;;;;;;36.90;20.20;;;;;;;-3.44;65.95;100816.88;103230;1323;26524;-82
2021/12/23 06:47:46;;;;;;;33.60;19.30;;;;;;;-3.43;66.27;100815.33;103135;1322;22706;-84
2021/12/23 06:50:16;;;;;;;38.70;20.40;;;;;;;-3.33;67.00;100811.78;102984;1322;22580;-81
2021/12/23 06:52:43;;;;;;;38.10;20.50;;;;;;;-3.26;66.51;100807.84;103009;1322;24249;-83
2021/12/23 06:55:11;;;;;;;39.80;21.60;;;;;;;-3.23;66.29;100807.65;103163;1322;22795;-81
2021/12/23 06:57:40;;;;;;;43.70;23.00;;;;;;;-3.21;66.25;100805.53;103048;1322;22593;-81
2021/12/23 07:00:13;;;;;;;38.20;20.60;;;;;;;-3.10;66.27;100810.89;102318;1328;24250;-81
2021/12/23 07:02:47;;;;;;;35.70;20.90;;;;;;;-3.13;65.68;100805.79;103100;1322;22728;-88
2021/12/23 07:06:16;;;;;;;;;;;;;;;;;;;;;
2021/12/23 07:09:53;;;;;;;30.20;17.20;;;;;;;-3.26;65.54;100798.72;104171;1328;22716;-91
2021/12/23 07:13:06;;;;;;;28.90;18.00;;;;;;;-3.34;65.36;100801.68;104055;1339;22971;-86
2021/12/23 07:15:36;;;;;;;39.10;21.00;;;;;;;-3.34;65.36;100794.98;102589;1338;22642;-92
2021/12/23 07:18:11;;;;;;;34.60;17.70;;;;;;;-3.36;65.50;100793.70;103316;1334;25396;-91
2021/12/23 07:20:44;;;;;;;40.70;20.70;;;;;;;-3.35;65.51;100787.39;103497;1332;22856;-90
2021/12/23 07:23:18;;;;;;;38.60;22.10;;;;;;;-3.26;65.80;100781.47;103288;1337;25507;-91
2021/12/23 07:25:47;;;;;;;38.80;21.20;;;;;;;-3.22;65.56;100782.69;103426;1335;22629;-91
2021/12/23 07:28:18;;;;;;;42.40;24.50;;;;;;;-3.31;65.35;100783.81;103386;1331;22593;-92
2021/12/23 07:30:51;;;;;;;42.40;23.80;;;;;;;-3.30;65.60;100782.80;103348;1332;25309;-86
2021/12/23 07:33:59;;;;;;;42.40;23.20;;;;;;;-3.20;65.74;100776.11;102842;1328;22746;-89
2021/12/23 07:37:37;;;;;;;40.90;22.30;;;;;;;-3.15;65.55;100774.13;103472;1328;22645;-88
2021/12/23 07:41:07;;;;;;;40.50;22.70;;;;;;;-3.06;65.39;100767.85;103473;1328;22702;-88
2021/12/23 07:45:06;;;;;;;;;;;;;;;;;;;;;
2021/12/23 07:48:23;;;;;;;45.50;23.50;;;;;;;-2.97;65.27;100760.40;103834;1337;22624;-87
2021/12/23 07:52:11;;;;;;;39.80;22.40;;;;;;;-2.94;65.26;100753.65;103340;1332;22548;-89
2021/12/23 07:55:21;;;;;;;36.20;20.90;;;;;;;-2.96;65.11;100748.92;104243;1331;22999;-87
2021/12/23 07:58:08;;;;;;;40.10;20.50;;;;;;;-2.90;65.26;100751.95;103893;1331;25637;-89
2021/12/23 08:00:36;;;;;;;34.20;20.60;;;;;;;-2.85;65.28;100744.79;102971;1331;22576;-90
2021/12/23 08:03:33;;;;;;;39.20;22.30;;;;;;;-2.81;65.17;100737.77;103117;1329;24553;-89
2021/12/23 08:06:05;;;;;;;37.00;19.60;;;;;;;-2.74;64.90;100736.92;103371;1328;25569;-90
2021/12/23 08:09:09;;;;;;;;;;;;;;;;;;;;;
2021/12/23 08:12:00;;;;;;;41.70;23.40;;;;;;;-2.69;64.97;100730.11;102481;1335;25331;-88
2021/12/23 08:15:20;;;;;;;;;;;;;;;;;;;;;
2021/12/23 08:18:59;;;;;;;35.40;19.90;;;;;;;-2.49;64.81;100720.20;102616;1342;22609;-91
2021/12/23 08:22:49;;;;;;;37.30;21.60;;;;;;;-2.45;64.56;100709.53;102196;1346;23030;-90
2021/12/23 08:26:29;;;;;;;36.90;21.10;;;;;;;-2.43;64.18;100710.33;101957;1343;24364;-90
2021/12/23 08:30:14;;;;;;;40.00;21.60;;;;;;;-2.42;64.34;100708.13;101523;1345;25653;-91
2021/12/23 08:33:50;;;;;;;36.90;20.70;;;;;;;-2.48;63.96;100706.09;101432;1345;25477;-91
2021/12/23 08:37:18;;;;;;;41.70;21.90;;;;;;;-2.44;64.32;100700.61;102021;1345;22604;-88
2021/12/23 08:40:27;;;;;;;36.30;20.70;;;;;;;-2.46;63.96;100697.95;101494;1348;22614;-87
2021/12/23 08:44:03;;;;;;;36.60;20.30;;;;;;;-2.52;63.89;100691.77;101556;1345;24298;-90
2021/12/23 08:47:19;;;;;;;29.20;15.70;;;;;;;-2.46;64.17;100691.38;101496;1345;22715;-89
2021/12/23 08:50:49;;;;;;;40.20;20.30;;;;;;;-2.52;63.99;100682.65;101477;1345;22844;-88
2021/12/23 08:54:18;;;;;;;39.10;22.50;;;;;;;-2.51;64.15;100678.19;101532;1344;24255;-89
2021/12/23 08:58:06;;;;;;;42.70;22.00;;;;;;;-2.47;63.91;100673.53;101919;1340;22628;-89
2021/12/23 09:01:01;;;;;;;33.70;19.90;;;;;;;-2.43;64.12;100666.17;102306;1339;24238;-89
2021/12/23 09:03:49;;;;;;;32.50;19.00;;;;;;;-2.41;63.71;100664.86;103376;1339;22684;-88
2021/12/23 09:06:52;;;;;;;35.10;19.10;;;;;;;-2.34;64.18;100660.19;103043;1340;24382;-89
2021/12/23 09:09:23;;;;;;;37.00;20.70;;;;;;;-2.30;63.74;100658.82;102161;1340;22782;-89
2021/12/23 09:11:52;;;;;;;35.10;20.50;;;;;;;-2.23;64.08;100654.84;101866;1339;26677;-89
2021/12/23 09:14:31;;;;;;;44.50;24.20;;;;;;;-2.13;63.95;100651.69;102110;1333;25274;-90
2021/12/23 09:16:58;;;;;;;39.50;21.80;;;;;;;-2.08;63.79;100654.33;101722;1339;25309;-86
2021/12/23 09:19:26;;;;;;;37.40;20.60;;;;;;;-2.07;63.38;100647.98;102237;1340;22331;-84
2021/12/23 09:21:53;;;;;;;47.40;25.10;;;;;;;-2.23;63.10;100644.67;102008;1337;25468;-86
2021/12/23 09:24:22;;;;;;;36.80;21.40;;;;;;;-2.32;63.45;100642.90;102236;1337;22592;-84
2021/12/23 09:27:39;;;;;;;47.10;22.50;;;;;;;-2.32;63.59;100638.39;102538;1331;22608;-86
2021/12/23 09:35:03;;;;;;;43.90;24.20;;;;;;;-2.19;63.44;100620.70;102772;1333;22772;-85
2021/12/23 09:37:32;;;;;;;46.40;23.90;;;;;;;-2.28;63.26;100617.55;102385;1333;24261;-85
2021/12/23 09:40:02;;;;;;;37.80;21.20;;;;;;;-2.22;63.72;100611.59;102870;1329;22862;-85
2021/12/23 09:42:34;;;;;;;39.60;21.40;;;;;;;-2.12;63.76;100610.50;102853;1334;22573;-86
2021/12/23 09:45:09;;;;;;;41.80;24.50;;;;;;;-2.04;63.86;100601.89;103383;1326;24371;-85
2021/12/23 09:47:37;;;;;;;42.60;24.70;;;;;;;-1.94;63.47;100600.40;104038;1326;22608;-85
2021/12/23 09:50:09;;;;;;;42.90;23.60;;;;;;;-1.92;63.27;100602.05;103390;1333;22541;-89
2021/12/23 09:52:42;;;;;;;36.80;21.90;;;;;;;-1.88;63.09;100594.80;103190;1331;23084;-84
2021/12/23 09:55:13;;;;;;;40.10;22.70;;;;;;;-1.92;62.91;100594.27;102555;1333;23275;-84
2021/12/23 09:58:03;;;;;;;38.60;20.80;;;;;;;-1.92;63.09;100587.39;102490;1333;22673;-87
2021/12/23 10:01:31;;;;;;;36.60;21.60;;;;;;;-1.88;63.10;100586.52;102724;1332;25712;-88
2021/12/23 10:05:21;;;;;;;41.90;21.90;;;;;;;-1.81;63.01;100587.37;102604;1333;22636;-86
2021/12/23 10:08:51;;;;;;;33.80;17.00;;;;;;;-1.75;62.99;100583.30;102673;1328;25456;-87
2021/12/23 10:37:37;;;;;;;32.50;17.70;;;;;;;-1.31;62.51;100516.24;103333;1342;22655;-84
2021/12/23 10:40:05;;;;;;;41.20;23.30;;;;;;;-1.27;62.03;100510.86;103164;1348;22992;-87
2021/12/23 10:42:57;;;;;;;42.20;25.80;;;;;;;-1.31;62.01;100503.62;102421;1351;466183;-84
2021/12/23 10:45:58;;;;;;;33.90;21.20;;;;;;;-1.19;62.19;100493.72;101999;1349;22627;-86
2021/12/23 10:49:27;;;;;;;42.90;23.10;;;;;;;-1.04;62.07;100487.75;102431;1350;23628;-86
2021/12/23 10:52:47;;;;;;;37.70;22.00;;;;;;;-0.84;61.85;100480.07;103223;1357;22890;-88
2021/12/23 10:59:24;;;;;;;33.70;20.40;;;;;;;-0.92;61.01;100460.74;102832;1351;22615;-83
2021/12/23 11:02:41;;;;;;;36.80;22.80;;;;;;;-0.84;61.14;100450.31;102924;1354;23296;-89
2021/12/23 11:05:22;;;;;;;40.70;24.90;;;;;;;-0.73;61.30;100441.57;102135;1348;22622;-89
2021/12/23 11:09:07;;;;;;;;;;;;;;;;;;;;;
2021/12/23 11:44:35;;;;;;;;;;;;;;;;;;;;;
2021/12/23 11:48:21;;;;;;;31.80;18.00;;;;;;;-0.96;60.96;100334.18;105682;1319;23868;-91
2021/12/23 11:52:30;;;;;;;;;;;;;;;;;;;;;
2021/12/23 11:56:17;;;;;;;35.10;20.50;;;;;;;-0.69;60.98;100309.89;105235;1328;22660;-92
2021/12/23 12:00:21;;;;;;;33.40;19.70;;;;;;;-0.66;60.49;100296.17;103454;1328;22886;-91
2021/12/23 12:04:30;;;;;;;;;;;;;;;;;;;;;
2021/12/23 12:08:10;;;;;;;27.00;17.10;;;;;;;-0.84;60.71;100276.19;103309;1343;22827;-91
2021/12/23 12:12:01;;;;;;;26.70;16.80;;;;;;;-0.76;60.73;100260.05;103392;1346;24047;-92
2021/12/23 12:15:09;;;;;;;32.60;18.80;;;;;;;-0.60;60.76;100255.91;103338;1349;22598;-87
2021/12/23 12:17:39;;;;;;;26.50;15.00;;;;;;;-0.55;60.76;100251.73;102455;1357;22684;-88
2021/12/23 12:24:20;;;;;;;;;;;;;;;;;;;;;
2021/12/23 12:28:00;;;;;;;31.20;18.40;;;;;;;-0.59;60.07;100236.39;102862;1345;22681;-87
2021/12/23 12:31:33;;;;;;;33.20;19.20;;;;;;;-0.63;60.13;100229.14;101468;1351;22993;-84
2021/12/23 12:34:36;;;;;;;26.50;17.50;;;;;;;-0.60;60.53;100227.17;101230;1351;24758;-91
2021/12/23 12:37:05;;;;;;;29.50;18.10;;;;;;;-0.50;60.26;100219.20;102856;1340;22673;-88
2021/12/23 12:39:41;;;;;;;29.30;18.00;;;;;;;-0.50;60.26;100212.79;103552;1339;26565;-86
2021/12/23 12:42:29;;;;;;;29.40;16.10;;;;;;;-0.49;60.16;100212.67;102923;1336;25459;-89
2021/12/23 12:45:08;;;;;;;34.90;19.90;;;;;;;-0.53;59.94;100203.38;103310;1331;23697;-88
2021/12/23 12:47:56;;;;;;;41.70;22.80;;;;;;;-0.54;60.24;100200.77;103317;1339;22607;-87
2021/12/23 12:50:29;;;;;;;29.80;14.70;;;;;;;-0.56;59.79;100196.69;103747;1339;22790;-91
2021/12/23 12:53:19;;;;;;;35.50;20.70;;;;;;;-0.70;60.05;100192.77;102820;1342;22624;-90
2021/12/23 12:55:49;;;;;;;34.80;18.90;;;;;;;-0.67;60.14;100196.16;103276;1342;23421;-89
2021/12/23 12:58:57;;;;;;;29.60;18.20;;;;;;;-0.65;60.20;100184.80;102965;1342;26853;-88
2021/12/23 13:01:42;;;;;;;;;;;;;;;-0.68;60.32;100184.52;103352;1342;26650;-89
2021/12/23 13:05:48;;;;;;;28.50;17.30;;;;;;;-0.73;60.28;100181.98;103219;1345;22845;-91
2021/12/23 13:10:03;;;;;;;;;;;;;;;;;;;;;
2021/12/23 13:13:59;;;;;;;35.90;21.50;;;;;;;-0.59;60.29;100168.59;102722;1339;25367;-92
2021/12/23 13:17:39;;;;;;;33.30;16.90;;;;;;;-0.57;60.14;100162.75;102843;1339;22907;-91
2021/12/23 13:21:10;;;;;;;28.30;15.50;;;;;;;-0.74;59.87;100162.02;103073;1342;22906;-89
2021/12/23 13:24:03;;;;;;;28.40;16.60;;;;;;;-0.80;59.99;100152.52;103629;1342;23297;-89
2021/12/23 13:27:10;;;;;;;26.40;16.10;;;;;;;-0.74;60.53;100155.28;103422;1338;24062;-88
2021/12/23 13:29:41;;;;;;;23.70;13.00;;;;;;;-0.64;60.49;100155.10;103083;1354;22343;-87
2021/12/23 13:32:08;;;;;;;27.00;14.30;;;;;;;-0.64;60.17;100155.80;102883;1352;22575;-84
2021/12/23 13:34:37;;;;;;;30.00;16.50;;;;;;;-0.67;60.01;100145.83;102051;1357;22576;-89
2021/12/23 13:37:19;;;;;;;19.90;13.20;;;;;;;-0.69;60.03;100144.38;102462;1357;22609;-83
2021/12/23 13:40:09;;;;;;;29.50;17.30;;;;;;;-0.68;59.86;100140.77;101296;1355;545506;-89
2021/12/23 13:42:41;;;;;;;23.50;15.20;;;;;;;-0.70;60.22;100136.40;103064;1329;22708;-89
2021/12/23 13:45:10;;;;;;;24.90;14.30;;;;;;;-0.63;60.17;100132.31;102906;1332;22718;-88